createdAt,value
2023-04-09T00:02:03.187Z,9.30
2023-04-09T00:04:32.719Z,9.25
2023-04-09T00:07:01.872Z,9.26
2023-04-09T00:09:31.248Z,9.28
2023-04-09T00:12:00.443Z,9.22
2023-04-09T00:14:29.699Z,9.33
2023-04-09T00:16:58.769Z,9.31
2023-04-09T00:19:29.623Z,9.28
2023-04-09T00:21:59.170Z,9.27
2023-04-09T00:24:28.563Z,9.24
2023-04-09T00:26:57.708Z,9.20
2023-04-09T00:29:27.312Z,9.28
2023-04-09T00:31:59.088Z,9.25
2023-04-09T00:34:29.987Z,9.18
2023-04-09T00:36:59.209Z,9.16
2023-04-09T00:39:29.690Z,9.16
2023-04-09T00:41:59.770Z,9.16
2023-04-09T00:44:29.288Z,9.16
2023-04-09T00:46:59.707Z,9.19
2023-04-09T00:49:31.054Z,9.17
2023-04-09T00:52:00.345Z,9.18
2023-04-09T00:54:30.055Z,9.21
2023-04-09T00:57:00.741Z,9.19
2023-04-09T00:59:31.375Z,9.21
2023-04-09T01:02:00.704Z,9.18
2023-04-09T01:04:31.323Z,9.15
2023-04-09T01:07:06.980Z,9.09
2023-04-09T01:09:42.571Z,9.09
2023-04-09T01:12:23.187Z,9.09
2023-04-09T01:15:04.416Z,9.07
2023-04-09T01:17:39.682Z,9.04
2023-04-09T01:20:15.854Z,9.01
2023-04-09T01:23:02.554Z,9.02
2023-04-09T01:25:46.251Z,9.02
2023-04-09T01:28:23.676Z,9.00
2023-04-09T01:31:01.990Z,8.96
2023-04-09T01:33:33.613Z,8.97
2023-04-09T01:36:05.805Z,8.93
2023-04-09T01:38:36.902Z,8.88
2023-04-09T01:41:09.087Z,8.91
2023-04-09T01:43:40.087Z,8.98
2023-04-09T01:46:10.923Z,8.95
2023-04-09T01:48:40.584Z,8.89
2023-04-09T01:51:10.316Z,8.82
2023-04-09T01:53:39.477Z,8.87
2023-04-09T01:56:09.499Z,8.88
2023-04-09T01:58:40.994Z,8.86
2023-04-09T02:01:14.643Z,8.81
2023-04-09T02:03:48.066Z,8.82
2023-04-09T02:06:26.832Z,8.85
2023-04-09T02:08:56.432Z,8.81
2023-04-09T02:11:27.715Z,8.77
2023-04-09T02:13:59.329Z,8.75
2023-04-09T02:16:30.124Z,8.71
2023-04-09T02:19:01.297Z,8.74
2023-04-09T02:21:31.877Z,8.68
2023-04-09T02:24:01.474Z,8.64
2023-04-09T02:26:30.887Z,8.68
2023-04-09T02:29:02.472Z,8.68
2023-04-09T02:31:31.967Z,8.60
2023-04-09T02:34:01.197Z,8.64
2023-04-09T02:36:31.272Z,8.66
2023-04-09T02:39:00.161Z,8.65
2023-04-09T02:41:29.594Z,8.60
2023-04-09T02:43:58.699Z,8.56
2023-04-09T02:46:29.947Z,8.55
2023-04-09T02:48:59.512Z,8.59
2023-04-09T02:51:28.957Z,8.57
2023-04-09T02:53:58.329Z,8.56
2023-04-09T02:56:27.980Z,8.55
2023-04-09T02:58:57.229Z,8.57
2023-04-09T03:01:26.689Z,8.57
2023-04-09T03:03:57.525Z,8.59
2023-04-09T03:06:27.013Z,8.57
2023-04-09T03:08:56.048Z,8.53
2023-04-09T03:11:25.609Z,8.53
2023-04-09T03:13:54.791Z,8.52
2023-04-09T03:16:26.925Z,8.51
2023-04-09T03:18:57.560Z,8.51
2023-04-09T03:21:27.787Z,8.49
2023-04-09T03:23:57.034Z,8.49
2023-04-09T03:26:26.557Z,8.46
2023-04-09T03:28:55.738Z,8.46
2023-04-09T03:31:25.193Z,8.44
2023-04-09T03:33:54.462Z,8.42
2023-04-09T03:36:25.481Z,8.39
2023-04-09T03:39:01.952Z,8.32
2023-04-09T03:41:35.133Z,8.26
2023-04-09T03:44:08.118Z,8.22
2023-04-09T03:46:57.935Z,8.17
2023-04-09T03:49:28.411Z,8.26
2023-04-09T03:52:03.350Z,8.20
2023-04-09T03:54:39.271Z,8.14
2023-04-09T03:57:15.478Z,8.10
2023-04-09T03:59:48.154Z,8.05
2023-04-09T04:02:21.232Z,7.97
2023-04-09T04:04:59.517Z,8.06
2023-04-09T04:07:37.183Z,8.00
2023-04-09T04:10:14.234Z,7.91
2023-04-09T04:12:47.646Z,7.82
2023-04-09T04:15:27.979Z,7.75
2023-04-09T04:17:59.023Z,7.78
2023-04-09T04:20:45.377Z,7.74
2023-04-09T04:23:18.579Z,7.77
2023-04-09T04:25:54.296Z,7.74
2023-04-09T04:28:31.027Z,7.66
2023-04-09T04:31:00.622Z,7.71
2023-04-09T04:33:32.519Z,7.63
2023-04-09T04:36:10.143Z,7.56
2023-04-09T04:38:45.333Z,7.58
2023-04-09T04:41:20.905Z,7.55
2023-04-09T04:43:58.390Z,7.53
2023-04-09T04:46:28.133Z,7.50
2023-04-09T04:48:57.482Z,7.51
2023-04-09T04:51:27.718Z,7.51
2023-04-09T04:54:13.957Z,7.49
2023-04-09T04:56:49.018Z,7.51
2023-04-09T04:59:34.666Z,7.52
2023-04-09T05:02:06.999Z,7.53
2023-04-09T05:04:51.203Z,7.52
2023-04-09T05:07:22.548Z,7.52
2023-04-09T05:09:57.174Z,7.52
2023-04-09T05:12:26.620Z,7.53
2023-04-09T05:14:56.316Z,7.53
2023-04-09T05:17:26.539Z,7.54
2023-04-09T05:19:57.883Z,7.53
2023-04-09T05:22:36.348Z,7.53
2023-04-09T05:25:09.346Z,7.57
2023-04-09T05:27:41.211Z,7.56
2023-04-09T05:30:12.102Z,7.61
2023-04-09T05:32:42.386Z,7.63
2023-04-09T05:35:11.937Z,7.60
2023-04-09T05:37:45.185Z,7.63
2023-04-09T05:40:16.041Z,7.62
2023-04-09T05:42:45.993Z,7.63
2023-04-09T05:45:24.745Z,7.65
2023-04-09T05:47:55.921Z,7.68
2023-04-09T05:50:26.485Z,7.70
2023-04-09T05:52:57.343Z,7.73
2023-04-09T05:55:35.360Z,7.74
2023-04-09T05:58:05.494Z,7.77
2023-04-09T06:00:35.424Z,7.80
2023-04-09T06:03:05.955Z,7.85
2023-04-09T06:05:35.491Z,7.88
2023-04-09T06:08:04.764Z,7.97
2023-04-09T06:10:35.842Z,8.01
2023-04-09T06:13:06.074Z,8.15
2023-04-09T06:15:36.498Z,8.21
2023-04-09T06:18:05.752Z,8.21
2023-04-09T06:20:35.323Z,8.27
2023-04-09T06:23:04.518Z,8.29
2023-04-09T06:25:36.446Z,8.33
2023-04-09T06:28:05.904Z,8.47
2023-04-09T06:30:37.068Z,8.52
2023-04-09T06:33:06.497Z,8.54
2023-04-09T06:35:35.847Z,8.58
2023-04-09T06:38:05.336Z,8.65
2023-04-09T06:40:36.322Z,8.73
2023-04-09T06:43:05.527Z,8.81
2023-04-09T06:45:44.632Z,8.89
2023-04-09T06:48:13.824Z,8.94
2023-04-09T06:50:43.257Z,9.00
2023-04-09T06:53:12.423Z,9.05
2023-04-09T06:55:43.355Z,9.10
2023-04-09T06:58:12.968Z,9.13
2023-04-09T07:00:42.670Z,9.19
2023-04-09T07:03:11.946Z,9.26
2023-04-09T07:05:41.440Z,9.28
2023-04-09T07:08:11.703Z,9.30
2023-04-09T07:10:42.986Z,9.35
2023-04-09T07:13:12.364Z,9.38
2023-04-09T07:15:42.575Z,9.37
2023-04-09T07:18:12.082Z,9.42
2023-04-09T07:20:41.447Z,9.48
2023-04-09T07:23:10.841Z,9.54
2023-04-09T07:25:40.690Z,9.58
2023-04-09T07:28:11.718Z,9.62
2023-04-09T07:30:41.509Z,9.69
2023-04-09T07:33:10.765Z,9.77
2023-04-09T07:35:40.448Z,9.78
2023-04-09T07:38:09.666Z,9.84
2023-04-09T07:40:39.323Z,9.88
2023-04-09T07:43:08.497Z,9.93
2023-04-09T07:45:39.270Z,10.00
2023-04-09T07:48:09.968Z,10.05
2023-04-09T07:50:39.450Z,10.13
2023-04-09T07:53:08.581Z,10.18
2023-04-09T07:55:38.052Z,10.20
2023-04-09T07:58:07.460Z,10.26
2023-04-09T08:00:38.297Z,10.32
2023-04-09T08:03:07.864Z,10.43
2023-04-09T08:05:38.235Z,10.54
2023-04-09T08:08:07.858Z,10.68
2023-04-09T08:10:37.719Z,10.79
2023-04-09T08:13:06.952Z,10.92
2023-04-09T08:15:36.320Z,10.97
2023-04-09T08:18:07.191Z,11.08
2023-04-09T08:20:37.088Z,11.20
2023-04-09T08:23:06.067Z,11.30
2023-04-09T08:25:35.493Z,11.43
2023-04-09T08:28:04.680Z,11.56
2023-04-09T08:30:34.486Z,11.71
2023-04-09T08:33:05.626Z,11.86
2023-04-09T08:35:35.264Z,12.00
2023-04-09T08:38:04.497Z,12.17
2023-04-09T08:40:36.871Z,12.33
2023-04-09T08:43:07.524Z,12.42
2023-04-09T08:45:37.618Z,12.59
2023-04-09T08:48:11.876Z,12.76
2023-04-09T08:50:41.733Z,12.86
2023-04-09T08:53:11.555Z,12.99
2023-04-09T08:55:41.212Z,13.12
2023-04-09T08:58:10.711Z,13.24
2023-04-09T09:00:40.776Z,13.42
2023-04-09T09:03:14.146Z,13.51
2023-04-09T09:05:45.840Z,13.64
2023-04-09T09:08:24.145Z,13.78
2023-04-09T09:10:54.025Z,13.94
2023-04-09T09:13:24.981Z,14.09
2023-04-09T09:15:56.462Z,14.21
2023-04-09T09:18:44.419Z,14.36
2023-04-09T09:21:15.127Z,14.44
2023-04-09T09:23:44.936Z,14.57
2023-04-09T09:26:16.478Z,14.63
2023-04-09T09:28:48.333Z,14.63
2023-04-09T09:31:19.532Z,14.60
2023-04-09T09:33:51.901Z,14.65
2023-04-09T09:36:35.667Z,14.64
2023-04-09T09:39:09.988Z,14.64
2023-04-09T09:41:40.727Z,14.58
2023-04-09T09:44:12.127Z,14.50
2023-04-09T09:46:43.409Z,14.46
2023-04-09T09:49:13.960Z,14.47
2023-04-09T09:51:44.302Z,14.43
2023-04-09T09:54:16.645Z,14.35
2023-04-09T09:56:46.618Z,14.32
2023-04-09T09:59:37.000Z,14.26
2023-04-09T10:02:16.878Z,14.13
2023-04-09T10:04:50.163Z,14.08
2023-04-09T10:07:20.571Z,14.06
2023-04-09T10:09:53.044Z,14.01
2023-04-09T10:12:24.923Z,14.01
2023-04-09T10:14:57.735Z,13.99
2023-04-09T10:17:27.339Z,13.99
2023-04-09T10:20:07.422Z,13.91
2023-04-09T10:22:37.648Z,13.99
2023-04-09T10:25:08.806Z,14.01
2023-04-09T10:27:38.650Z,14.02
2023-04-09T10:30:10.771Z,14.04
2023-04-09T10:32:40.641Z,14.06
2023-04-09T10:35:11.974Z,14.10
2023-04-09T10:37:51.069Z,14.10
2023-04-09T10:40:22.570Z,14.10
2023-04-09T10:42:52.602Z,14.10
2023-04-09T10:45:22.989Z,14.09
2023-04-09T10:47:53.000Z,14.11
2023-04-09T10:50:28.095Z,14.13
2023-04-09T10:53:00.692Z,14.17
2023-04-09T10:55:37.210Z,14.17
2023-04-09T10:58:09.729Z,14.19
2023-04-09T11:00:43.033Z,14.22
2023-04-09T11:03:22.789Z,14.25
2023-04-09T11:06:01.061Z,14.25
2023-04-09T11:08:32.345Z,14.22
2023-04-09T11:11:02.469Z,14.21
2023-04-09T11:13:33.090Z,14.24
2023-04-09T11:16:04.313Z,14.32
2023-04-09T11:18:37.178Z,14.30
2023-04-09T11:21:10.293Z,14.31
2023-04-09T11:23:39.830Z,14.36
2023-04-09T11:26:11.672Z,14.43
2023-04-09T11:28:44.840Z,14.42
2023-04-09T11:31:14.492Z,14.52
2023-04-09T11:33:47.281Z,14.61
2023-04-09T11:36:18.338Z,14.67
2023-04-09T11:38:50.899Z,14.72
2023-04-09T11:41:20.274Z,14.82
2023-04-09T11:43:52.981Z,14.90
2023-04-09T11:46:26.208Z,14.92
2023-04-09T11:48:56.823Z,14.99
2023-04-09T11:51:28.836Z,15.06
2023-04-09T11:54:02.306Z,15.12
2023-04-09T11:56:32.678Z,15.20
2023-04-09T11:59:02.314Z,15.24
2023-04-09T12:01:33.877Z,15.30
2023-04-09T12:04:03.843Z,15.33
2023-04-09T12:06:34.798Z,15.36
2023-04-09T12:09:04.267Z,15.42
2023-04-09T12:11:34.413Z,15.47
2023-04-09T12:14:05.291Z,15.46
2023-04-09T12:16:36.060Z,15.45
2023-04-09T12:19:07.413Z,15.47
2023-04-09T12:21:52.252Z,15.50
2023-04-09T12:24:24.075Z,15.48
2023-04-09T12:26:53.926Z,15.47
2023-04-09T12:29:24.472Z,15.47
2023-04-09T12:31:55.043Z,15.56
2023-04-09T12:34:24.587Z,15.62
2023-04-09T12:36:55.178Z,15.67
2023-04-09T12:39:24.887Z,15.70
2023-04-09T12:41:54.542Z,15.77
2023-04-09T12:44:23.905Z,15.78
2023-04-09T12:46:53.093Z,15.74
2023-04-09T12:49:22.801Z,15.81
2023-04-09T12:51:52.041Z,15.82
2023-04-09T12:54:22.897Z,15.89
2023-04-09T12:56:52.242Z,15.92
2023-04-09T12:59:21.652Z,16.00
2023-04-09T13:01:52.395Z,15.99
2023-04-09T13:04:22.227Z,16.03
2023-04-09T13:06:51.625Z,16.03
2023-04-09T13:09:22.832Z,16.04
2023-04-09T13:11:53.248Z,16.09
2023-04-09T13:14:23.258Z,16.04
2023-04-09T13:16:56.283Z,16.07
2023-04-09T13:19:26.236Z,16.11
2023-04-09T13:21:55.872Z,16.07
2023-04-09T13:24:27.330Z,15.97
2023-04-09T13:26:57.805Z,16.04
2023-04-09T13:29:31.401Z,16.06
2023-04-09T13:32:02.605Z,16.03
2023-04-09T13:34:32.265Z,16.07
2023-04-09T13:37:01.644Z,16.22
2023-04-09T13:39:33.074Z,16.28
2023-04-09T13:42:12.599Z,16.41
2023-04-09T13:44:45.175Z,16.72
2023-04-09T13:47:15.130Z,17.06
2023-04-09T13:49:45.002Z,17.32
2023-04-09T13:52:14.484Z,17.73
2023-04-09T13:54:45.303Z,18.04
2023-04-09T13:57:14.594Z,18.48
2023-04-09T13:59:44.281Z,18.90
2023-04-09T14:02:13.906Z,19.24
2023-04-09T14:04:43.537Z,19.60
2023-04-09T14:07:13.345Z,19.89
2023-04-09T14:09:44.567Z,20.36
2023-04-09T14:12:13.878Z,20.66
2023-04-09T14:14:43.747Z,21.03
2023-04-09T14:17:13.038Z,21.28
2023-04-09T14:19:42.588Z,21.44
2023-04-09T14:22:11.969Z,21.76
2023-04-09T14:24:41.456Z,22.05
2023-04-09T14:27:12.089Z,22.33
2023-04-09T14:29:41.767Z,22.54
2023-04-09T14:32:11.271Z,22.85
2023-04-09T14:34:41.571Z,23.15
2023-04-09T14:37:11.061Z,23.40
2023-04-09T14:39:40.968Z,23.63
2023-04-09T14:42:12.770Z,23.75
2023-04-09T14:44:42.374Z,23.86
2023-04-09T14:47:11.503Z,24.19
2023-04-09T14:49:41.210Z,24.26
2023-04-09T14:52:10.867Z,24.38
2023-04-09T14:54:40.498Z,24.37
2023-04-09T14:57:11.274Z,24.30
2023-04-09T14:59:40.872Z,24.22
2023-04-09T15:02:10.169Z,23.95
2023-04-09T15:04:40.416Z,23.94
2023-04-09T15:07:09.855Z,23.66
2023-04-09T15:09:39.718Z,23.50
2023-04-09T15:12:10.085Z,23.12
2023-04-09T15:14:41.013Z,23.04
2023-04-09T15:17:10.416Z,22.90
2023-04-09T15:19:39.781Z,22.99
2023-04-09T15:22:08.954Z,23.05
2023-04-09T15:24:38.470Z,23.02
2023-04-09T15:27:07.707Z,22.86
2023-04-09T15:29:37.131Z,23.02
2023-04-09T15:32:07.953Z,22.99
2023-04-09T15:34:37.454Z,23.21
2023-04-09T15:37:06.985Z,23.21
2023-04-09T15:39:36.746Z,23.31
2023-04-09T15:42:07.307Z,23.38
2023-04-09T15:44:39.128Z,23.40
2023-04-09T15:47:10.148Z,23.48
2023-04-09T15:49:39.627Z,23.53
2023-04-09T15:52:08.677Z,23.68
2023-04-09T15:54:38.728Z,23.59
2023-04-09T15:57:07.928Z,23.62
2023-04-09T15:59:37.323Z,23.59
2023-04-09T16:02:06.609Z,23.67
2023-04-09T16:04:37.870Z,23.55
2023-04-09T16:07:07.196Z,23.53
2023-04-09T16:09:36.667Z,23.48
2023-04-09T16:12:06.620Z,23.33
2023-04-09T16:14:36.524Z,23.27
2023-04-09T16:17:06.087Z,23.15
2023-04-09T16:19:37.220Z,22.98
2023-04-09T16:22:07.679Z,22.88
2023-04-09T16:24:40.216Z,22.79
2023-04-09T16:27:13.203Z,22.58
2023-04-09T16:29:43.753Z,22.42
2023-04-09T16:32:19.284Z,22.28
2023-04-09T16:34:51.017Z,22.22
2023-04-09T16:37:21.669Z,21.95
2023-04-09T16:39:52.031Z,21.59
2023-04-09T16:42:23.093Z,21.22
2023-04-09T16:44:57.836Z,20.80
2023-04-09T16:47:27.298Z,20.39
2023-04-09T16:49:59.657Z,19.98
2023-04-09T16:52:31.760Z,19.53
2023-04-09T16:55:02.486Z,19.22
2023-04-09T16:57:33.052Z,18.95
2023-04-09T17:00:07.257Z,18.43
2023-04-09T17:02:37.945Z,17.90
2023-04-09T17:05:13.895Z,17.74
2023-04-09T17:07:43.285Z,17.42
2023-04-09T17:10:13.685Z,17.16
2023-04-09T17:12:43.855Z,16.83
2023-04-09T17:15:14.201Z,16.52
2023-04-09T17:17:44.048Z,16.24
2023-04-09T17:20:15.709Z,15.99
2023-04-09T17:22:44.961Z,15.75
2023-04-09T17:25:14.788Z,15.52
2023-04-09T17:27:45.404Z,15.29
2023-04-09T17:30:15.567Z,15.06
2023-04-09T17:32:44.970Z,14.85
2023-04-09T17:35:16.137Z,14.60
2023-04-09T17:37:45.282Z,14.38
2023-04-09T17:40:17.007Z,14.17
2023-04-09T17:42:46.378Z,13.98
2023-04-09T17:45:16.109Z,13.80
2023-04-09T17:47:45.807Z,13.64
2023-04-09T17:50:16.825Z,13.44
2023-04-09T17:52:47.853Z,13.25
2023-04-09T17:55:18.254Z,13.07
2023-04-09T17:57:47.698Z,12.95
2023-04-09T18:00:17.644Z,12.75
2023-04-09T18:02:49.929Z,12.60
2023-04-09T18:05:23.226Z,12.42
2023-04-09T18:07:54.932Z,12.27
2023-04-09T18:10:27.864Z,12.16
2023-04-09T18:12:58.600Z,11.96
2023-04-09T18:15:28.102Z,11.89
2023-04-09T18:17:58.437Z,11.79
2023-04-09T18:20:34.870Z,11.62
2023-04-09T18:23:04.970Z,11.53
2023-04-09T18:25:34.927Z,11.47
2023-04-09T18:28:04.940Z,11.27
2023-04-09T18:30:36.496Z,11.15
2023-04-09T18:33:06.221Z,11.07
2023-04-09T18:35:38.495Z,11.02
2023-04-09T18:38:09.637Z,10.90
2023-04-09T18:40:43.719Z,10.78
2023-04-09T18:43:13.838Z,10.63
2023-04-09T18:45:44.135Z,10.54
2023-04-09T18:48:16.734Z,10.45
2023-04-09T18:50:50.373Z,10.35
2023-04-09T18:53:19.900Z,10.26
2023-04-09T18:55:50.412Z,10.14
2023-04-09T18:58:19.891Z,10.09
2023-04-09T19:00:52.650Z,9.99
2023-04-09T19:03:22.793Z,9.84
2023-04-09T19:05:55.107Z,9.66
2023-04-09T19:08:24.758Z,9.58
2023-04-09T19:11:02.540Z,9.48
2023-04-09T19:13:34.334Z,9.38
2023-04-09T19:16:09.546Z,9.25
2023-04-09T19:18:42.325Z,9.17
2023-04-09T19:21:14.529Z,9.00
2023-04-09T19:23:46.957Z,8.90
2023-04-09T19:26:19.421Z,8.85
2023-04-09T19:28:49.291Z,8.78
2023-04-09T19:31:20.596Z,8.64
2023-04-09T19:33:50.546Z,8.57
2023-04-09T19:36:22.703Z,8.49
2023-04-09T19:38:54.007Z,8.41
2023-04-09T19:41:24.641Z,8.31
2023-04-09T19:43:55.308Z,8.24
2023-04-09T19:46:25.291Z,8.20
2023-04-09T19:48:56.725Z,8.10
2023-04-09T19:51:28.889Z,7.97
2023-04-09T19:53:58.524Z,7.91
2023-04-09T19:56:28.586Z,7.83
2023-04-09T19:58:57.849Z,7.75
2023-04-09T20:01:28.309Z,7.70
2023-04-09T20:03:58.474Z,7.66
2023-04-09T20:06:30.981Z,7.53
2023-04-09T20:09:01.481Z,7.48
2023-04-09T20:11:32.035Z,7.42
2023-04-09T20:14:03.914Z,7.36
2023-04-09T20:16:37.364Z,7.32
2023-04-09T20:19:07.892Z,7.23
2023-04-09T20:21:39.772Z,7.17
2023-04-09T20:24:09.986Z,7.11
2023-04-09T20:26:39.472Z,7.08
2023-04-09T20:29:12.556Z,7.00
2023-04-09T20:31:44.640Z,6.83
2023-04-09T20:34:14.956Z,6.76
2023-04-09T20:36:48.031Z,6.69
2023-04-09T20:39:19.763Z,6.60
2023-04-09T20:41:51.096Z,6.52
2023-04-09T20:44:21.078Z,6.45
2023-04-09T20:46:54.409Z,6.38
2023-04-09T20:49:24.031Z,6.32
2023-04-09T20:51:55.376Z,6.24
2023-04-09T20:54:26.916Z,6.15
2023-04-09T20:56:56.999Z,6.09
2023-04-09T20:59:26.407Z,6.07
2023-04-09T21:01:58.348Z,5.97
2023-04-09T21:04:28.521Z,5.87
2023-04-09T21:07:03.114Z,5.82
2023-04-09T21:09:34.612Z,5.75
2023-04-09T21:12:04.428Z,5.69
2023-04-09T21:14:33.537Z,5.64
2023-04-09T21:17:03.181Z,5.56
2023-04-09T21:19:33.347Z,5.51
2023-04-09T21:22:08.423Z,5.46
2023-04-09T21:24:38.144Z,5.38
2023-04-09T21:27:08.192Z,5.35
2023-04-09T21:29:37.797Z,5.32
2023-04-09T21:32:08.826Z,5.29
2023-04-09T21:34:39.636Z,5.13
2023-04-09T21:37:11.937Z,5.06
2023-04-09T21:39:41.226Z,5.06
2023-04-09T21:42:10.753Z,4.99
2023-04-09T21:44:40.015Z,4.90
2023-04-09T21:47:09.424Z,4.91
2023-04-09T21:49:40.429Z,4.90
2023-04-09T21:52:15.023Z,4.83
2023-04-09T21:54:44.890Z,4.80
2023-04-09T21:57:14.588Z,4.75
2023-04-09T21:59:43.699Z,4.69
2023-04-09T22:02:13.105Z,4.59
2023-04-09T22:04:43.022Z,4.55
2023-04-09T22:07:14.008Z,4.51
2023-04-09T22:09:43.324Z,4.50
2023-04-09T22:12:12.737Z,4.44
2023-04-09T22:14:42.071Z,4.36
2023-04-09T22:17:11.505Z,4.36
2023-04-09T22:19:40.585Z,4.33
2023-04-09T22:22:12.288Z,4.27
2023-04-09T22:24:42.766Z,4.21
2023-04-09T22:27:13.280Z,4.14
2023-04-09T22:29:42.542Z,4.10
2023-04-09T22:32:12.077Z,4.05
2023-04-09T22:34:41.151Z,4.00
2023-04-09T22:37:10.641Z,3.94
2023-04-09T22:39:41.294Z,3.90
2023-04-09T22:42:11.714Z,3.83
2023-04-09T22:44:41.921Z,3.80
2023-04-09T22:47:11.503Z,3.83
2023-04-09T22:49:40.589Z,3.77
2023-04-09T22:52:09.977Z,3.77
2023-04-09T22:54:39.103Z,3.73
2023-04-09T22:57:10.283Z,3.69
2023-04-09T22:59:40.931Z,3.69
2023-04-09T23:02:10.788Z,3.67
2023-04-09T23:04:40.704Z,3.60
2023-04-09T23:07:10.559Z,3.57
2023-04-09T23:09:39.825Z,3.59
2023-04-09T23:12:10.662Z,3.54
2023-04-09T23:14:39.801Z,3.57
2023-04-09T23:17:09.151Z,3.53
2023-04-09T23:19:38.241Z,3.55
2023-04-09T23:22:07.749Z,3.50
2023-04-09T23:24:36.950Z,3.45
2023-04-09T23:27:06.720Z,3.44
2023-04-09T23:29:37.359Z,3.38
2023-04-09T23:32:07.142Z,3.39
2023-04-09T23:34:36.281Z,3.36
2023-04-09T23:37:05.744Z,3.36
2023-04-09T23:39:35.060Z,3.33
2023-04-09T23:42:04.497Z,3.29
2023-04-09T23:44:33.776Z,3.25
2023-04-09T23:47:05.947Z,3.22
2023-04-09T23:49:35.151Z,3.21
2023-04-09T23:52:04.906Z,3.15
2023-04-09T23:54:33.980Z,3.23
2023-04-09T23:57:03.412Z,3.20
2023-04-09T23:59:35.917Z,3.21
